createdAt,value
2023-11-16T00:02:22.484Z,100.00
2023-11-16T00:12:25.056Z,100.00
2023-11-16T00:22:30.902Z,100.00
2023-11-16T00:32:33.640Z,100.00
2023-11-16T00:42:38.278Z,100.00
2023-11-16T00:52:40.918Z,100.00
2023-11-16T01:02:44.405Z,100.00
2023-11-16T01:12:47.041Z,100.00
2023-11-16T01:23:02.673Z,100.00
2023-11-16T01:33:09.355Z,100.00
2023-11-16T01:43:13.343Z,100.00
2023-11-16T01:53:16.262Z,100.00
2023-11-16T02:03:18.980Z,100.00
2023-11-16T02:13:24.711Z,100.00
2023-11-16T02:23:27.244Z,100.00
2023-11-16T02:33:29.919Z,100.00
2023-11-16T02:43:32.603Z,100.00
2023-11-16T02:53:35.604Z,100.00
2023-11-16T03:03:38.573Z,100.00
2023-11-16T03:13:42.606Z,100.00
2023-11-16T03:23:45.483Z,100.00
2023-11-16T03:33:48.009Z,100.00
2023-11-16T03:43:50.694Z,100.00
2023-11-16T03:53:53.174Z,100.00
2023-11-16T04:03:55.806Z,100.00
2023-11-16T04:13:59.153Z,100.00
2023-11-16T04:24:07.032Z,100.00
2023-11-16T04:34:09.610Z,100.00
2023-11-16T04:44:12.129Z,100.00
2023-11-16T04:54:15.399Z,100.00
2023-11-16T05:04:18.194Z,100.00
2023-11-16T05:14:20.874Z,100.00
2023-11-16T05:24:25.482Z,100.00
2023-11-16T05:34:30.853Z,100.00
2023-11-16T05:44:34.077Z,100.00
2023-11-16T05:54:36.708Z,100.00
2023-11-16T06:04:39.456Z,100.00
2023-11-16T06:14:46.839Z,100.00
2023-11-16T06:24:50.105Z,100.00
2023-11-16T06:34:52.858Z,100.00
2023-11-16T06:44:55.323Z,100.00
2023-11-16T06:54:57.999Z,100.00
2023-11-16T07:05:00.625Z,100.00
2023-11-16T07:15:07.010Z,100.00
2023-11-16T07:25:11.295Z,100.00
2023-11-16T07:35:16.617Z,100.00
2023-11-16T07:45:19.184Z,100.00
2023-11-16T07:55:23.365Z,100.00
2023-11-16T08:05:27.718Z,94.81
2023-11-16T08:15:30.435Z,85.21
2023-11-16T08:25:33.369Z,78.97
2023-11-16T08:35:38.875Z,76.81
2023-11-16T08:45:43.517Z,76.34
2023-11-16T08:55:47.201Z,75.07
2023-11-16T09:05:52.406Z,73.01
2023-11-16T09:15:56.336Z,65.50
2023-11-16T09:25:58.961Z,57.99
2023-11-16T09:36:02.576Z,65.07
2023-11-16T09:46:10.270Z,64.93
2023-11-16T09:56:22.647Z,65.83
2023-11-16T10:06:30.395Z,61.86
2023-11-16T10:16:34.044Z,61.86
2023-11-16T10:26:36.998Z,62.07
2023-11-16T10:36:40.370Z,65.92
2023-11-16T10:46:44.566Z,68.06
2023-11-16T10:56:53.326Z,71.40
2023-11-16T11:06:56.678Z,59.88
2023-11-16T11:17:07.004Z,57.48
2023-11-16T11:27:10.218Z,60.85
2023-11-16T11:37:16.291Z,64.34
2023-11-16T11:47:25.441Z,66.49
2023-11-16T11:57:34.915Z,55.13
2023-11-16T12:07:43.708Z,50.55
2023-11-16T12:17:47.300Z,56.81
2023-11-16T12:27:49.936Z,59.04
2023-11-16T12:37:52.700Z,62.45
2023-11-16T12:47:55.570Z,65.01
2023-11-16T12:57:58.415Z,66.48
2023-11-16T13:08:01.139Z,66.05
2023-11-16T13:18:04.794Z,65.35
2023-11-16T13:28:07.437Z,65.41
2023-11-16T13:38:10.185Z,61.73
2023-11-16T13:48:12.689Z,62.45
2023-11-16T13:58:15.387Z,63.09
2023-11-16T14:08:19.825Z,64.49
2023-11-16T14:18:23.878Z,66.83
2023-11-16T14:28:26.380Z,66.85
2023-11-16T14:38:28.978Z,68.88
2023-11-16T14:48:31.711Z,70.35
2023-11-16T14:58:34.332Z,70.22
2023-11-16T15:08:36.867Z,71.17
2023-11-16T15:18:40.799Z,72.00
2023-11-16T15:28:43.493Z,71.18
2023-11-16T15:38:46.028Z,74.96
2023-11-16T15:48:48.697Z,77.73
2023-11-16T15:58:51.837Z,79.67
2023-11-16T16:08:54.618Z,82.39
2023-11-16T16:18:57.315Z,81.33
2023-11-16T16:28:59.990Z,80.56
2023-11-16T16:39:05.086Z,78.83
2023-11-16T16:49:13.148Z,78.92
2023-11-16T16:59:16.235Z,78.57
2023-11-16T17:09:19.003Z,78.57
2023-11-16T17:19:22.345Z,78.72
2023-11-16T17:29:25.237Z,80.39
2023-11-16T17:39:29.123Z,80.84
2023-11-16T17:49:31.859Z,81.72
2023-11-16T17:59:34.332Z,82.68
2023-11-16T18:09:37.831Z,82.60
2023-11-16T18:19:40.682Z,81.78
2023-11-16T18:29:43.245Z,82.62
2023-11-16T18:39:45.955Z,82.28
2023-11-16T18:49:48.539Z,82.17
2023-11-16T18:59:51.087Z,83.01
2023-11-16T19:09:55.476Z,82.21
2023-11-16T19:19:59.560Z,81.42
2023-11-16T19:30:03.289Z,82.77
2023-11-16T19:40:12.787Z,83.30
2023-11-16T19:50:17.942Z,83.80
2023-11-16T20:00:23.983Z,84.02
2023-11-16T20:10:31.812Z,84.86
2023-11-16T20:20:44.631Z,84.24
2023-11-16T20:30:54.826Z,83.92
2023-11-16T20:40:58.017Z,83.91
2023-11-16T20:51:00.677Z,85.33
2023-11-16T21:01:03.855Z,87.45
2023-11-16T21:11:10.119Z,89.01
2023-11-16T21:21:13.117Z,90.31
2023-11-16T21:31:15.873Z,89.47
2023-11-16T21:41:19.202Z,91.23
2023-11-16T21:51:21.772Z,91.16
2023-11-16T22:01:24.252Z,94.60
2023-11-16T22:11:27.184Z,96.38
2023-11-16T22:21:29.782Z,98.04
2023-11-16T22:31:32.681Z,97.85
2023-11-16T22:41:35.350Z,97.74
2023-11-16T22:51:37.846Z,98.53
2023-11-16T23:01:40.319Z,100.00
2023-11-16T23:11:42.965Z,100.00
2023-11-16T23:21:45.602Z,100.00
2023-11-16T23:31:48.414Z,100.00
2023-11-16T23:41:51.064Z,100.00
2023-11-16T23:51:53.606Z,100.00
